Terminal Aerodrome Forecast
Issued by NWS Missoula, MT

Current Version | Previous Version | Text Only | Print | Product List | Glossary On
Versions: 1 2 3 4 5 6 7 8 9 10 11 12
000
FTUS45 KMSO 201100
TAFBTM
TAF
KBTM 201140Z 2012/2112 31012KT P6SM BKN090
     FM201900 31014G24KT P6SM BKN090
     FM210300 VRB03KT P6SM SKC=

USA.gov is the U.S. government's official web portal to all federal, state and local government web resources and services.